Time;durP1;ratioP1;P1;durP2;ratioP2;P2;SDS_P1;SDS_P2;PMS_P1;PMS_P2;Temp;Humidity;BMP_temperature;BMP_pressure;BME280_temperature;BME280_humidity;BME280_pressure;Samples;Min_cycle;Max_cycle;Signal;HPM_P1;HPM_P2
2023/03/18 03:49:44;;;;;;;0.53;0.53;;;;;;;;;;7397927;19;20149;-91
2023/03/18 03:52:11;;;;;;;0.53;0.53;;;;;;;;;;7396331;19;20621;-91
2023/03/18 03:54:40;;;;;;;0.33;0.33;;;;;;;;;;7396325;19;20499;-92
2023/03/18 03:57:06;;;;;;;1.63;1.40;;;;;;;;;;7395233;19;20130;-92
2023/03/18 03:59:33;;;;;;;0.73;0.73;;;;;;;;;;7394576;19;20613;-90
2023/03/18 04:01:59;;;;;;;0.40;0.40;;;;;;;;;;7395751;19;20129;-91
2023/03/18 04:04:26;;;;;;;0.47;0.47;;;;;;;;;;7395321;19;20473;-93
2023/03/18 04:06:53;;;;;;;0.80;0.80;;;;;;;;;;7397356;19;20139;-92
2023/03/18 04:09:20;;;;;;;0.40;0.40;;;;;;;;;;7428072;19;20129;-94
2023/03/18 04:11:47;;;;;;;5.63;0.80;;;;;;;;;;7429090;19;20157;-93
2023/03/18 04:14:13;;;;;;;0.30;0.30;;;;;;;;;;7429127;19;20160;-94
2023/03/18 04:16:40;;;;;;;0.30;0.30;;;;;;;;;;7427070;19;20129;-93
2023/03/18 04:19:07;;;;;;;1.20;0.97;;;;;;;;;;7416437;19;20133;-92
2023/03/18 04:21:34;;;;;;;0.40;0.40;;;;;;;;;;7395648;19;20137;-92
2023/03/18 04:24:02;;;;;;;0.40;0.40;;;;;;;;;;7394315;19;20153;-92
2023/03/18 04:26:30;;;;;;;1.43;1.13;;;;;;;;;;7393385;19;20137;-92
2023/03/18 04:28:56;;;;;;;2.50;1.03;;;;;;;;;;7395449;19;20133;-91
2023/03/18 04:31:23;;;;;;;0.43;0.43;;;;;;;;;;7395580;19;20129;-91
2023/03/18 04:33:49;;;;;;;0.30;0.30;;;;;;;;;;7395162;19;20135;-92
2023/03/18 04:36:16;;;;;;;0.30;0.30;;;;;;;;;;7398862;19;20522;-91
2023/03/18 04:38:43;;;;;;;0.43;0.43;;;;;;;;;;7395088;19;20136;-91
2023/03/18 04:41:09;;;;;;;0.73;0.70;;;;;;;;;;7393614;19;20153;-91
2023/03/18 04:43:36;;;;;;;0.80;0.80;;;;;;;;;;7396100;19;20613;-92
2023/03/18 04:46:02;;;;;;;1.07;0.57;;;;;;;;;;7395886;19;20157;-89
2023/03/18 04:48:29;;;;;;;0.50;0.50;;;;;;;;;;7393023;19;20133;-91
2023/03/18 04:50:55;;;;;;;1.90;1.33;;;;;;;;;;7396426;19;20137;-91
2023/03/18 04:53:22;;;;;;;0.70;0.70;;;;;;;;;;7394920;19;20132;-90
2023/03/18 04:55:49;;;;;;;0.73;0.73;;;;;;;;;;7395078;19;20169;-90
2023/03/18 04:58:16;;;;;;;0.40;0.40;;;;;;;;;;7394550;19;20133;-91
2023/03/18 05:00:43;;;;;;;0.47;0.47;;;;;;;;;;7394710;19;20129;-90
2023/03/18 05:03:11;;;;;;;0.33;0.33;;;;;;;;;;7396945;19;20137;-91
2023/03/18 05:05:37;;;;;;;0.70;0.70;;;;;;;;;;7395876;19;20152;-90
2023/03/18 05:08:04;;;;;;;1.03;0.87;;;;;;;;;;7396247;19;20132;-90
2023/03/18 05:10:31;;;;;;;0.70;0.70;;;;;;;;;;7393096;19;20137;-91
2023/03/18 05:12:58;;;;;;;0.60;0.60;;;;;;;;;;7396028;19;20522;-90
2023/03/18 05:15:24;;;;;;;1.33;1.23;;;;;;;;;;7392817;19;20161;-91
2023/03/18 05:17:52;;;;;;;0.50;0.50;;;;;;;;;;7394243;19;20180;-90
2023/03/18 05:20:19;;;;;;;0.30;0.30;;;;;;;;;;7395538;19;20133;-90
2023/03/18 05:22:46;;;;;;;0.43;0.43;;;;;;;;;;7395816;19;20587;-90
2023/03/18 05:25:12;;;;;;;1.27;1.17;;;;;;;;;;7394012;19;20160;-90
2023/03/18 05:27:40;;;;;;;0.67;0.67;;;;;;;;;;7395425;19;20137;-91
2023/03/18 05:30:09;;;;;;;0.53;0.53;;;;;;;;;;7393907;19;20133;-91
2023/03/18 05:32:36;;;;;;;2.80;0.80;;;;;;;;;;7393103;19;20596;-91
2023/03/18 05:35:04;;;;;;;0.30;0.30;;;;;;;;;;7393733;19;20153;-91
2023/03/18 05:37:31;;;;;;;0.33;0.33;;;;;;;;;;7397417;19;20129;-90
2023/03/18 05:39:57;;;;;;;1.90;0.53;;;;;;;;;;7390386;19;20129;-91
2023/03/18 05:42:24;;;;;;;0.57;0.57;;;;;;;;;;7393139;19;20482;-90
2023/03/18 05:44:51;;;;;;;0.50;0.50;;;;;;;;;;7392355;19;20117;-91
2023/03/18 05:47:18;;;;;;;0.47;0.47;;;;;;;;;;7393602;19;20129;-91
2023/03/18 05:49:44;;;;;;;0.30;0.30;;;;;;;;;;7393788;19;20135;-92
2023/03/18 05:52:11;;;;;;;2.43;1.27;;;;;;;;;;7392812;19;20121;-90
2023/03/18 05:54:38;;;;;;;0.30;0.30;;;;;;;;;;7393618;19;20136;-90
2023/03/18 05:57:04;;;;;;;0.40;0.40;;;;;;;;;;7392896;19;20176;-90
2023/03/18 05:59:31;;;;;;;1.43;1.33;;;;;;;;;;7393880;19;20132;-90
2023/03/18 06:01:58;;;;;;;0.40;0.40;;;;;;;;;;7392006;19;20157;-91
2023/03/18 06:04:26;;;;;;;0.60;0.60;;;;;;;;;;7394785;19;20144;-91
2023/03/18 06:06:54;;;;;;;0.53;0.53;;;;;;;;;;7390452;19;20176;-90
2023/03/18 06:09:21;;;;;;;0.40;0.40;;;;;;;;;;7395032;19;20141;-91
2023/03/18 06:11:48;;;;;;;0.30;0.30;;;;;;;;;;7393378;19;20147;-91
2023/03/18 06:14:14;;;;;;;0.30;0.30;;;;;;;;;;7396396;19;20149;-89
2023/03/18 06:16:41;;;;;;;0.60;0.60;;;;;;;;;;7393985;19;20224;-94
2023/03/18 06:19:09;;;;;;;0.30;0.30;;;;;;;;;;7395471;19;20638;-90
2023/03/18 06:21:37;;;;;;;0.87;0.87;;;;;;;;;;7391271;19;20165;-90
2023/03/18 06:24:04;;;;;;;0.60;0.60;;;;;;;;;;7394800;19;20144;-91
2023/03/18 06:26:30;;;;;;;0.70;0.70;;;;;;;;;;7394532;19;20569;-91
2023/03/18 06:28:57;;;;;;;1.30;1.03;;;;;;;;;;7394244;19;20160;-89
2023/03/18 06:31:24;;;;;;;0.50;0.50;;;;;;;;;;7395709;19;20155;-89
2023/03/18 06:33:52;;;;;;;0.70;0.70;;;;;;;;;;7396002;19;20133;-92
2023/03/18 06:36:19;;;;;;;0.43;0.43;;;;;;;;;;7396756;19;20160;-91
2023/03/18 06:38:46;;;;;;;0.30;0.30;;;;;;;;;;7396757;19;20118;-92
2023/03/18 06:41:13;;;;;;;0.80;0.80;;;;;;;;;;7395083;19;20133;-91
2023/03/18 06:43:40;;;;;;;0.90;0.90;;;;;;;;;;7400675;19;20141;-92
2023/03/18 06:46:06;;;;;;;0.63;0.63;;;;;;;;;;7396518;19;20161;-92
2023/03/18 06:48:34;;;;;;;0.40;0.40;;;;;;;;;;7392400;19;20133;-91
2023/03/18 06:51:00;;;;;;;0.60;0.60;;;;;;;;;;7393913;19;20169;-92
2023/03/18 06:53:28;;;;;;;0.30;0.30;;;;;;;;;;7399415;19;20601;-91
2023/03/18 06:55:55;;;;;;;0.60;0.60;;;;;;;;;;7397391;19;20157;-92
2023/03/18 06:58:23;;;;;;;0.40;0.40;;;;;;;;;;7399276;19;20129;-92
2023/03/18 07:00:50;;;;;;;0.50;0.50;;;;;;;;;;7397344;19;20125;-91
2023/03/18 07:03:20;;;;;;;0.40;0.40;;;;;;;;;;7399921;19;20142;-91
2023/03/18 07:05:47;;;;;;;0.30;0.30;;;;;;;;;;7397198;19;20157;-92
2023/03/18 07:08:15;;;;;;;0.37;0.37;;;;;;;;;;7398708;19;20160;-92
2023/03/18 07:10:42;;;;;;;0.30;0.30;;;;;;;;;;7399219;19;20128;-92
2023/03/18 07:13:09;;;;;;;0.30;0.30;;;;;;;;;;7398690;19;20204;-92
2023/03/18 07:15:37;;;;;;;0.83;0.83;;;;;;;;;;7415529;19;20169;-94
2023/03/18 07:18:05;;;;;;;3.00;1.10;;;;;;;;;;7431404;19;20125;-95
2023/03/18 07:20:33;;;;;;;0.63;0.60;;;;;;;;;;7429936;19;20126;-90
2023/03/18 07:23:00;;;;;;;0.30;0.30;;;;;;;;;;7432469;19;20537;-92
2023/03/18 07:25:26;;;;;;;0.57;0.57;;;;;;;;;;7432432;19;20153;-91
2023/03/18 07:27:53;;;;;;;0.40;0.40;;;;;;;;;;7435173;19;20149;-91
2023/03/18 07:30:20;;;;;;;0.30;0.30;;;;;;;;;;7429996;19;20129;-92
2023/03/18 07:32:47;;;;;;;0.30;0.30;;;;;;;;;;7430493;19;20152;-90
2023/03/18 07:35:14;;;;;;;0.30;0.30;;;;;;;;;;7430821;19;20173;-92
2023/03/18 07:37:41;;;;;;;0.40;0.40;;;;;;;;;;7429773;19;20125;-92
2023/03/18 07:40:09;;;;;;;0.33;0.33;;;;;;;;;;7413827;19;20212;-93
2023/03/18 07:42:35;;;;;;;0.50;0.50;;;;;;;;;;7402384;19;20145;-92
2023/03/18 07:45:03;;;;;;;3.33;0.53;;;;;;;;;;7399753;19;20157;-93
2023/03/18 07:47:30;;;;;;;0.43;0.43;;;;;;;;;;7401983;19;20137;-91
2023/03/18 07:49:56;;;;;;;0.30;0.30;;;;;;;;;;7399346;19;20486;-91
2023/03/18 07:52:23;;;;;;;0.50;0.50;;;;;;;;;;7402603;19;20148;-91
2023/03/18 07:54:50;;;;;;;0.40;0.40;;;;;;;;;;7399506;19;20620;-90
2023/03/18 07:57:17;;;;;;;0.40;0.40;;;;;;;;;;7398222;19;20582;-91
2023/03/18 07:59:44;;;;;;;0.83;0.83;;;;;;;;;;7395737;19;20166;-91
2023/03/18 08:02:13;;;;;;;0.50;0.50;;;;;;;;;;7395067;19;20141;-90
2023/03/18 08:04:41;;;;;;;0.47;0.47;;;;;;;;;;7396197;19;20173;-91
2023/03/18 08:07:08;;;;;;;0.50;0.50;;;;;;;;;;7397781;19;20549;-92
2023/03/18 08:09:35;;;;;;;0.40;0.40;;;;;;;;;;7396156;19;20589;-91
2023/03/18 08:12:02;;;;;;;0.40;0.40;;;;;;;;;;7395701;19;20174;-92
2023/03/18 08:14:28;;;;;;;0.67;0.63;;;;;;;;;;7395873;19;20642;-91
2023/03/18 08:16:55;;;;;;;0.80;0.80;;;;;;;;;;7393331;19;20141;-90
2023/03/18 08:19:22;;;;;;;0.70;0.70;;;;;;;;;;7396400;19;20178;-89
2023/03/18 08:21:48;;;;;;;0.53;0.53;;;;;;;;;;7393396;19;20141;-90
2023/03/18 08:24:16;;;;;;;1.00;0.90;;;;;;;;;;7396382;19;20141;-91
2023/03/18 08:26:42;;;;;;;0.43;0.43;;;;;;;;;;7394903;19;20160;-89
2023/03/18 08:29:09;;;;;;;0.70;0.70;;;;;;;;;;7393330;19;20129;-91
2023/03/18 08:31:37;;;;;;;1.30;0.90;;;;;;;;;;7394574;19;20141;-91
2023/03/18 08:34:04;;;;;;;0.63;0.63;;;;;;;;;;7397611;19;20169;-88
2023/03/18 08:36:31;;;;;;;0.90;0.87;;;;;;;;;;7394087;19;20159;-91
2023/03/18 08:38:57;;;;;;;0.50;0.50;;;;;;;;;;7398329;19;20266;-90
2023/03/18 08:41:24;;;;;;;0.30;0.30;;;;;;;;;;7396720;19;20141;-90
2023/03/18 08:43:54;;;;;;;0.37;0.37;;;;;;;;;;7398361;19;20156;-91
2023/03/18 08:46:20;;;;;;;3.30;0.90;;;;;;;;;;7397147;19;20272;-89
2023/03/18 08:48:47;;;;;;;0.80;0.80;;;;;;;;;;7397470;19;20512;-90
2023/03/18 08:51:15;;;;;;;0.60;0.60;;;;;;;;;;7396459;19;20172;-91
2023/03/18 08:53:42;;;;;;;0.63;0.63;;;;;;;;;;7399584;19;20165;-87
2023/03/18 08:56:08;;;;;;;0.57;0.57;;;;;;;;;;7396738;19;20593;-90
2023/03/18 08:58:35;;;;;;;0.50;0.50;;;;;;;;;;7395212;19;20129;-91
2023/03/18 09:01:04;;;;;;;0.37;0.37;;;;;;;;;;7396761;19;20930;-91
2023/03/18 09:03:31;;;;;;;0.40;0.40;;;;;;;;;;7396747;19;20152;-89
2023/03/18 09:05:57;;;;;;;0.27;0.27;;;;;;;;;;7395290;19;20208;-90
2023/03/18 09:08:24;;;;;;;0.50;0.50;;;;;;;;;;7396164;19;20169;-90
2023/03/18 09:10:52;;;;;;;0.50;0.50;;;;;;;;;;7395098;19;20156;-83
2023/03/18 09:13:20;;;;;;;0.40;0.40;;;;;;;;;;7394517;19;20141;-83
2023/03/18 09:15:46;;;;;;;0.30;0.30;;;;;;;;;;7389867;19;20303;-84
2023/03/18 09:18:14;;;;;;;0.30;0.30;;;;;;;;;;7397497;19;20141;-83
2023/03/18 09:20:41;;;;;;;0.30;0.30;;;;;;;;;;7393481;19;20965;-83
2023/03/18 09:23:08;;;;;;;0.60;0.60;;;;;;;;;;7395115;19;20148;-83
2023/03/18 09:25:35;;;;;;;0.30;0.30;;;;;;;;;;7397221;19;20172;-92
2023/03/18 09:28:02;;;;;;;0.50;0.50;;;;;;;;;;7396220;19;20153;-91
2023/03/18 09:30:28;;;;;;;0.40;0.40;;;;;;;;;;7394554;19;20137;-92
2023/03/18 09:32:55;;;;;;;0.30;0.30;;;;;;;;;;7394877;19;20129;-91
2023/03/18 09:35:22;;;;;;;0.50;0.50;;;;;;;;;;7390689;19;20181;-91
2023/03/18 09:37:48;;;;;;;0.43;0.43;;;;;;;;;;7389285;19;20609;-92
2023/03/18 09:40:29;;;;;;;0.37;0.37;;;;;;;;;;7388259;19;20160;-89
2023/03/18 09:43:02;;;;;;;0.33;0.33;;;;;;;;;;7391446;19;20145;-89
2023/03/18 09:45:46;;;;;;;0.30;0.30;;;;;;;;;;7389033;19;20184;-88
2023/03/18 09:48:43;;;;;;;0.30;0.30;;;;;;;;;;7395214;19;20147;-89
2023/03/18 09:51:30;;;;;;;0.50;0.50;;;;;;;;;;7390988;19;20140;-89
2023/03/18 09:54:52;;;;;;;0.30;0.30;;;;;;;;;;7401818;19;20161;-87
2023/03/18 09:57:23;;;;;;;0.30;0.30;;;;;;;;;;7398585;19;20145;-89
2023/03/18 10:00:00;;;;;;;0.30;0.30;;;;;;;;;;7402429;19;20144;-87
2023/03/18 10:02:35;;;;;;;0.30;0.30;;;;;;;;;;7401571;19;20144;-87
2023/03/18 10:05:05;;;;;;;0.50;0.50;;;;;;;;;;7407405;19;20137;-88
2023/03/18 10:07:36;;;;;;;0.40;0.40;;;;;;;;;;7406522;19;20137;-87
2023/03/18 10:10:12;;;;;;;6.60;0.63;;;;;;;;;;7402604;19;20497;-88
2023/03/18 10:12:44;;;;;;;0.43;0.43;;;;;;;;;;7395726;19;20625;-89
2023/03/18 10:15:30;;;;;;;0.30;0.30;;;;;;;;;;7399066;19;20172;-88
2023/03/18 10:18:09;;;;;;;0.40;0.40;;;;;;;;;;7401900;19;20581;-87
2023/03/18 10:21:00;;;;;;;0.33;0.33;;;;;;;;;;7401656;19;20629;-89
2023/03/18 10:23:51;;;;;;;0.60;0.60;;;;;;;;;;7402669;19;20145;-87
2023/03/18 10:26:29;;;;;;;0.30;0.30;;;;;;;;;;7402916;19;20204;-87
2023/03/18 10:29:39;;;;;;;0.67;0.67;;;;;;;;;;7412675;19;20140;-87
2023/03/18 10:32:12;;;;;;;0.50;0.50;;;;;;;;;;7404606;19;20512;-87
2023/03/18 10:34:45;;;;;;;0.40;0.40;;;;;;;;;;7405711;19;20129;-90
2023/03/18 10:37:33;;;;;;;0.47;0.47;;;;;;;;;;7410376;19;20221;-88
2023/03/18 10:40:00;;;;;;;1.30;1.20;;;;;;;;;;7407586;19;20133;-89
2023/03/18 10:42:30;;;;;;;0.60;0.53;;;;;;;;;;7404369;19;20137;-88
2023/03/18 10:45:14;;;;;;;0.50;0.50;;;;;;;;;;7405400;19;20140;-89
2023/03/18 10:47:48;;;;;;;0.30;0.30;;;;;;;;;;7406767;19;20128;-87
2023/03/18 10:50:33;;;;;;;0.20;0.20;;;;;;;;;;7405779;19;20141;-87
2023/03/18 10:53:12;;;;;;;0.53;0.53;;;;;;;;;;7402999;19;20166;-87
2023/03/18 10:55:49;;;;;;;0.50;0.50;;;;;;;;;;7395452;19;20176;-89
2023/03/18 10:58:18;;;;;;;0.30;0.30;;;;;;;;;;7400904;19;20160;-87
2023/03/18 11:00:45;;;;;;;1.58;0.80;;;;;;;;;;7406073;19;20133;-86
2023/03/18 11:03:25;;;;;;;0.35;0.35;;;;;;;;;;7397376;19;20165;-86
2023/03/18 11:05:53;;;;;;;0.30;0.30;;;;;;;;;;7403224;19;20182;-87
2023/03/18 11:08:46;;;;;;;0.45;0.45;;;;;;;;;;7406090;19;20174;-87
2023/03/18 11:11:19;;;;;;;0.30;0.30;;;;;;;;;;7403217;19;20152;-86
2023/03/18 11:13:48;;;;;;;0.63;0.63;;;;;;;;;;7402696;19;20137;-88
2023/03/18 11:16:28;;;;;;;0.50;0.50;;;;;;;;;;7401651;19;20159;-86
2023/03/18 11:18:55;;;;;;;0.50;0.50;;;;;;;;;;7403155;19;20168;-87
2023/03/18 11:21:28;;;;;;;0.30;0.30;;;;;;;;;;7401046;19;20173;-87
2023/03/18 11:24:09;;;;;;;0.40;0.40;;;;;;;;;;7398771;19;21029;-87
2023/03/18 11:27:03;;;;;;;0.52;0.52;;;;;;;;;;7397686;19;20176;-87
2023/03/18 11:29:34;;;;;;;0.30;0.30;;;;;;;;;;7399579;19;20157;-87
2023/03/18 11:32:01;;;;;;;0.50;0.50;;;;;;;;;;7403659;19;20633;-87
2023/03/18 11:34:30;;;;;;;0.70;0.68;;;;;;;;;;7406077;19;20148;-86
2023/03/18 11:37:09;;;;;;;1.00;0.73;;;;;;;;;;7403866;19;20185;-88
2023/03/18 11:39:38;;;;;;;0.60;0.60;;;;;;;;;;7408621;19;20141;-89
2023/03/18 11:42:31;;;;;;;0.50;0.50;;;;;;;;;;7416445;19;20153;-90
2023/03/18 11:45:00;;;;;;;0.43;0.43;;;;;;;;;;7429509;19;20157;-89
2023/03/18 11:47:31;;;;;;;0.40;0.40;;;;;;;;;;7430840;19;20135;-91
2023/03/18 11:50:00;;;;;;;0.52;0.52;;;;;;;;;;7430277;19;20141;-89
2023/03/18 11:52:29;;;;;;;0.40;0.40;;;;;;;;;;7427500;19;20141;-91
2023/03/18 11:55:03;;;;;;;0.73;0.73;;;;;;;;;;7423907;19;20129;-90
2023/03/18 11:57:58;;;;;;;0.55;0.55;;;;;;;;;;7409384;19;20152;-89
2023/03/18 12:00:28;;;;;;;0.38;0.38;;;;;;;;;;7394950;19;20144;-89
2023/03/18 12:03:23;;;;;;;0.90;0.90;;;;;;;;;;7395446;19;20483;-89
2023/03/18 12:06:05;;;;;;;0.73;0.70;;;;;;;;;;7397431;19;22118;-91
2023/03/18 12:09:15;;;;;;;0.80;0.80;;;;;;;;;;7392721;19;20182;-89
2023/03/18 12:12:14;;;;;;;0.45;0.45;;;;;;;;;;7399825;19;20137;-89
2023/03/18 12:15:05;;;;;;;0.50;0.50;;;;;;;;;;7400816;19;20165;-89
2023/03/18 12:18:00;;;;;;;0.65;0.65;;;;;;;;;;7404422;19;20530;-88
2023/03/18 12:20:41;;;;;;;0.50;0.50;;;;;;;;;;7404163;19;20164;-88
2023/03/18 12:23:23;;;;;;;0.50;0.50;;;;;;;;;;7400123;19;20602;-88
2023/03/18 12:25:53;;;;;;;0.38;0.38;;;;;;;;;;7403543;19;20156;-89
2023/03/18 12:28:20;;;;;;;2.00;1.90;;;;;;;;;;7405529;19;20135;-89
2023/03/18 12:31:18;;;;;;;0.93;0.93;;;;;;;;;;7405890;19;20133;-89
2023/03/18 12:33:57;;;;;;;0.50;0.50;;;;;;;;;;7407664;19;20148;-90
2023/03/18 12:36:34;;;;;;;0.60;0.60;;;;;;;;;;7406262;19;20153;-91
2023/03/18 12:39:19;;;;;;;0.60;0.60;;;;;;;;;;7424106;19;20137;-91
2023/03/18 12:41:55;;;;;;;0.57;0.57;;;;;;;;;;7428825;19;20161;-91
2023/03/18 12:44:40;;;;;;;0.60;0.60;;;;;;;;;;7429783;19;20165;-90
2023/03/18 12:47:17;;;;;;;0.57;0.57;;;;;;;;;;7421184;19;20200;-90
2023/03/18 12:50:11;;;;;;;0.50;0.50;;;;;;;;;;7424806;19;20141;-90
2023/03/18 12:52:42;;;;;;;0.82;0.73;;;;;;;;;;7426973;19;20145;-93
2023/03/18 12:55:21;;;;;;;1.10;1.10;;;;;;;;;;7408807;19;20171;-90
2023/03/18 12:57:53;;;;;;;0.60;0.60;;;;;;;;;;7424568;19;20129;-91
2023/03/18 13:00:57;;;;;;;0.73;0.73;;;;;;;;;;7432081;19;20789;-91
2023/03/18 13:03:28;;;;;;;0.60;0.60;;;;;;;;;;7430626;19;20149;-91
2023/03/18 13:06:11;;;;;;;0.60;0.60;;;;;;;;;;7427045;19;20153;-90
2023/03/18 13:09:03;;;;;;;0.50;0.50;;;;;;;;;;7403701;19;20141;-91
2023/03/18 13:11:39;;;;;;;0.40;0.40;;;;;;;;;;7406632;19;20141;-91
2023/03/18 13:14:24;;;;;;;0.43;0.43;;;;;;;;;;7403101;19;20169;-91
2023/03/18 13:16:52;;;;;;;1.50;1.40;;;;;;;;;;7399949;19;20169;-91
2023/03/18 13:19:18;;;;;;;0.80;0.80;;;;;;;;;;7403420;19;20169;-91
2023/03/18 13:21:50;;;;;;;0.40;0.40;;;;;;;;;;7402593;19;20165;-91
2023/03/18 13:24:26;;;;;;;0.80;0.80;;;;;;;;;;7400156;19;20117;-91
2023/03/18 13:27:26;;;;;;;0.70;0.70;;;;;;;;;;7411872;19;20177;-91
2023/03/18 13:30:23;;;;;;;0.68;0.68;;;;;;;;;;7424395;19;20133;-92
2023/03/18 13:33:05;;;;;;;0.73;0.73;;;;;;;;;;7409323;19;20158;-91
2023/03/18 13:36:04;;;;;;;0.57;0.57;;;;;;;;;;7402195;19;20656;-91
2023/03/18 13:38:34;;;;;;;0.68;0.68;;;;;;;;;;7394141;19;20177;-91
2023/03/18 13:41:21;;;;;;;0.45;0.45;;;;;;;;;;7401338;19;20141;-91
2023/03/18 13:43:50;;;;;;;0.60;0.60;;;;;;;;;;7400637;19;20156;-90
2023/03/18 13:46:23;;;;;;;7.07;0.90;;;;;;;;;;7397263;19;20152;-91
2023/03/18 13:48:59;;;;;;;0.65;0.55;;;;;;;;;;7399658;19;20145;-91
2023/03/18 13:51:26;;;;;;;1.00;1.00;;;;;;;;;;7402520;19;20149;-91
2023/03/18 13:53:56;;;;;;;0.85;0.85;;;;;;;;;;7401864;19;20538;-92
2023/03/18 13:56:31;;;;;;;0.40;0.40;;;;;;;;;;7402360;19;20617;-90
2023/03/18 13:59:04;;;;;;;3.20;0.95;;;;;;;;;;7401191;19;20169;-91
2023/03/18 14:01:47;;;;;;;0.68;0.68;;;;;;;;;;7392977;19;20136;-90
2023/03/18 14:04:29;;;;;;;0.73;0.73;;;;;;;;;;7396543;19;20169;-92
2023/03/18 14:07:13;;;;;;;0.68;0.68;;;;;;;;;;7395898;19;20165;-91
2023/03/18 14:09:53;;;;;;;0.88;0.88;;;;;;;;;;7398588;19;20155;-91
2023/03/18 14:12:29;;;;;;;0.77;0.63;;;;;;;;;;7397344;19;20165;-91
2023/03/18 14:15:01;;;;;;;0.35;0.35;;;;;;;;;;7396213;19;20537;-92
2023/03/18 14:17:44;;;;;;;0.70;0.70;;;;;;;;;;7392690;19;20141;-90
2023/03/18 14:20:14;;;;;;;0.90;0.90;;;;;;;;;;7398803;19;20169;-91
2023/03/18 14:22:43;;;;;;;0.85;0.85;;;;;;;;;;7396650;19;20594;-91
2023/03/18 14:25:13;;;;;;;0.80;0.80;;;;;;;;;;7395687;19;20149;-91
2023/03/18 14:27:56;;;;;;;0.60;0.60;;;;;;;;;;7398373;19;20136;-91
2023/03/18 14:30:41;;;;;;;0.88;0.77;;;;;;;;;;7398654;19;20168;-91
2023/03/18 14:33:17;;;;;;;0.77;0.70;;;;;;;;;;7398105;19;20163;-91
2023/03/18 14:35:47;;;;;;;0.82;0.82;;;;;;;;;;7397069;19;20172;-91
2023/03/18 14:38:45;;;;;;;0.63;0.63;;;;;;;;;;7397671;19;20156;-92
2023/03/18 14:41:27;;;;;;;1.13;1.13;;;;;;;;;;7392440;19;20636;-91
2023/03/18 14:44:20;;;;;;;0.60;0.60;;;;;;;;;;7392667;19;20129;-90
2023/03/18 14:46:49;;;;;;;0.85;0.85;;;;;;;;;;7393990;19;20192;-90
2023/03/18 14:49:44;;;;;;;0.60;0.60;;;;;;;;;;7393782;19;20172;-91
2023/03/18 14:52:26;;;;;;;0.57;0.55;;;;;;;;;;7394014;19;20153;-90
2023/03/18 14:54:53;;;;;;;0.50;0.50;;;;;;;;;;7394602;19;20505;-91
2023/03/18 14:57:21;;;;;;;0.73;0.73;;;;;;;;;;7396411;19;20604;-91
2023/03/18 14:59:48;;;;;;;0.70;0.70;;;;;;;;;;7398021;19;20558;-91
2023/03/18 15:02:22;;;;;;;0.30;0.30;;;;;;;;;;7397870;19;20148;-92
2023/03/18 15:04:51;;;;;;;0.50;0.50;;;;;;;;;;7399485;19;20145;-90
2023/03/18 15:07:18;;;;;;;1.33;1.00;;;;;;;;;;7396003;19;20173;-90
2023/03/18 15:09:45;;;;;;;0.47;0.47;;;;;;;;;;7398920;19;20149;-91
2023/03/18 15:12:18;;;;;;;0.85;0.85;;;;;;;;;;7394601;19;20165;-86
2023/03/18 15:14:45;;;;;;;0.77;0.77;;;;;;;;;;7399409;19;20144;-88
2023/03/18 15:17:17;;;;;;;0.40;0.40;;;;;;;;;;7403553;19;20149;-86
2023/03/18 15:19:45;;;;;;;0.70;0.70;;;;;;;;;;7394103;19;20156;-86
2023/03/18 15:22:19;;;;;;;0.73;0.73;;;;;;;;;;7397814;19;20145;-88
2023/03/18 15:24:47;;;;;;;2.00;0.80;;;;;;;;;;7392369;19;20144;-87
2023/03/18 15:27:17;;;;;;;0.65;0.65;;;;;;;;;;7402928;19;20157;-88
2023/03/18 15:29:50;;;;;;;2.30;0.98;;;;;;;;;;7392428;19;20161;-86
2023/03/18 15:32:24;;;;;;;0.63;0.63;;;;;;;;;;7398211;19;20157;-86
2023/03/18 15:35:13;;;;;;;0.50;0.50;;;;;;;;;;7401123;19;20121;-86
2023/03/18 15:37:42;;;;;;;0.80;0.80;;;;;;;;;;7393474;19;20161;-88
2023/03/18 15:40:22;;;;;;;1.13;0.82;;;;;;;;;;7397717;19;20184;-87
2023/03/18 15:42:49;;;;;;;0.43;0.43;;;;;;;;;;7396209;19;20148;-87
2023/03/18 15:45:20;;;;;;;0.55;0.55;;;;;;;;;;7401277;19;20168;-87
2023/03/18 15:47:47;;;;;;;0.98;0.68;;;;;;;;;;7402006;19;20156;-87
2023/03/18 15:50:26;;;;;;;0.30;0.30;;;;;;;;;;7395238;19;20144;-87
2023/03/18 15:53:23;;;;;;;0.40;0.40;;;;;;;;;;7390520;19;20148;-87
2023/03/18 15:55:54;;;;;;;0.32;0.32;;;;;;;;;;7398548;19;20192;-86
2023/03/18 15:58:28;;;;;;;0.50;0.50;;;;;;;;;;7399441;19;20157;-87
2023/03/18 16:00:55;;;;;;;0.70;0.70;;;;;;;;;;7399783;19;20165;-89
2023/03/18 16:03:24;;;;;;;0.57;0.57;;;;;;;;;;7396423;19;20151;-87
2023/03/18 16:05:52;;;;;;;0.50;0.50;;;;;;;;;;7396266;19;20188;-88
2023/03/18 16:08:20;;;;;;;0.75;0.50;;;;;;;;;;7397867;19;20159;-87
2023/03/18 16:10:52;;;;;;;2.20;0.85;;;;;;;;;;7400512;19;20670;-87
2023/03/18 16:13:23;;;;;;;0.50;0.50;;;;;;;;;;7399311;19;20626;-88
2023/03/18 16:15:50;;;;;;;0.30;0.30;;;;;;;;;;7398843;19;20168;-87
2023/03/18 16:18:18;;;;;;;0.82;0.82;;;;;;;;;;7390594;19;20636;-87
2023/03/18 16:20:45;;;;;;;0.40;0.40;;;;;;;;;;7394556;19;20165;-88
2023/03/18 16:23:14;;;;;;;0.30;0.30;;;;;;;;;;7391953;19;20141;-88
2023/03/18 16:25:46;;;;;;;0.40;0.40;;;;;;;;;;7395729;19;20176;-88
2023/03/18 16:28:24;;;;;;;0.45;0.45;;;;;;;;;;7398893;19;20509;-87
2023/03/18 16:30:53;;;;;;;0.30;0.30;;;;;;;;;;7391992;19;20160;-88
2023/03/18 16:33:19;;;;;;;0.40;0.40;;;;;;;;;;7402532;19;20176;-88
2023/03/18 16:35:53;;;;;;;0.82;0.82;;;;;;;;;;7397217;19;20179;-88
2023/03/18 16:38:19;;;;;;;0.32;0.32;;;;;;;;;;7392676;19;20169;-88
2023/03/18 16:40:46;;;;;;;0.40;0.40;;;;;;;;;;7393075;19;20169;-87
2023/03/18 16:43:32;;;;;;;0.32;0.32;;;;;;;;;;7398572;19;20152;-88
2023/03/18 16:46:02;;;;;;;0.55;0.55;;;;;;;;;;7397481;19;20156;-87
2023/03/18 16:48:29;;;;;;;0.47;0.47;;;;;;;;;;7392669;19;20169;-87
2023/03/18 16:50:56;;;;;;;0.40;0.40;;;;;;;;;;7399415;19;20137;-88
2023/03/18 16:53:28;;;;;;;0.30;0.30;;;;;;;;;;7404486;19;20151;-88
2023/03/18 16:56:14;;;;;;;0.30;0.30;;;;;;;;;;7401193;19;20174;-88
2023/03/18 16:58:41;;;;;;;1.08;0.98;;;;;;;;;;7401817;19;20147;-88
2023/03/18 17:01:13;;;;;;;0.50;0.50;;;;;;;;;;7400247;19;20137;-87
2023/03/18 17:03:39;;;;;;;0.85;0.85;;;;;;;;;;7398541;19;20145;-88
2023/03/18 17:06:08;;;;;;;0.63;0.50;;;;;;;;;;7396918;19;20172;-88
2023/03/18 17:08:35;;;;;;;0.80;0.80;;;;;;;;;;7402187;19;20160;-87
2023/03/18 17:11:03;;;;;;;0.50;0.50;;;;;;;;;;7401785;19;20141;-88
2023/03/18 17:13:32;;;;;;;0.70;0.70;;;;;;;;;;7401902;19;20132;-88
2023/03/18 17:15:58;;;;;;;0.35;0.35;;;;;;;;;;7396709;19;20168;-88
2023/03/18 17:18:26;;;;;;;0.30;0.30;;;;;;;;;;7399842;19;20144;-86
2023/03/18 17:20:53;;;;;;;0.47;0.47;;;;;;;;;;7399827;19;20163;-87
2023/03/18 17:23:25;;;;;;;1.17;0.95;;;;;;;;;;7397436;19;20144;-87
2023/03/18 17:25:54;;;;;;;0.40;0.40;;;;;;;;;;7399972;19;20677;-87
2023/03/18 17:28:29;;;;;;;0.40;0.40;;;;;;;;;;7399626;19;20153;-87
2023/03/18 17:30:55;;;;;;;0.30;0.30;;;;;;;;;;7396488;19;20136;-88
2023/03/18 17:33:29;;;;;;;0.35;0.35;;;;;;;;;;7397342;19;20155;-87
2023/03/18 17:35:57;;;;;;;0.30;0.30;;;;;;;;;;7398523;19;20176;-87
2023/03/18 17:38:24;;;;;;;0.43;0.43;;;;;;;;;;7400180;19;20505;-87
2023/03/18 17:40:51;;;;;;;0.50;0.50;;;;;;;;;;7399727;19;20242;-88
2023/03/18 17:43:26;;;;;;;0.30;0.30;;;;;;;;;;7401451;19;20136;-87
2023/03/18 17:45:55;;;;;;;3.03;1.38;;;;;;;;;;7401100;19;20184;-89
2023/03/18 17:48:27;;;;;;;0.30;0.30;;;;;;;;;;7402333;19;20184;-86
2023/03/18 17:50:59;;;;;;;0.70;0.70;;;;;;;;;;7400748;19;20185;-86
2023/03/18 17:53:25;;;;;;;0.60;0.60;;;;;;;;;;7401742;19;20141;-86
2023/03/18 17:55:53;;;;;;;0.60;0.60;;;;;;;;;;7404322;19;20629;-87
2023/03/18 17:58:22;;;;;;;1.10;0.50;;;;;;;;;;7403509;19;20144;-87
2023/03/18 18:00:48;;;;;;;0.57;0.57;;;;;;;;;;7403135;19;20165;-87
2023/03/18 18:03:26;;;;;;;0.40;0.40;;;;;;;;;;7402011;19;20144;-88
2023/03/18 18:05:54;;;;;;;0.63;0.63;;;;;;;;;;7403530;19;20247;-87
2023/03/18 18:08:23;;;;;;;1.88;0.73;;;;;;;;;;7401511;19;20141;-86
2023/03/18 18:10:51;;;;;;;0.40;0.40;;;;;;;;;;7403507;19;20153;-87
2023/03/18 18:13:21;;;;;;;0.77;0.77;;;;;;;;;;7402087;19;20176;-86
2023/03/18 18:15:48;;;;;;;0.60;0.60;;;;;;;;;;7403537;19;20180;-88
2023/03/18 18:18:21;;;;;;;0.43;0.43;;;;;;;;;;7404600;19;20151;-86
2023/03/18 18:20:51;;;;;;;0.50;0.50;;;;;;;;;;7403152;19;20605;-87
2023/03/18 18:23:35;;;;;;;0.30;0.30;;;;;;;;;;7404944;19;20515;-86
2023/03/18 18:26:04;;;;;;;0.98;0.73;;;;;;;;;;7403453;19;20152;-87
2023/03/18 18:28:36;;;;;;;0.90;0.90;;;;;;;;;;7406668;19;20145;-86
2023/03/18 18:31:04;;;;;;;0.30;0.30;;;;;;;;;;7402611;19;20633;-89
2023/03/18 18:33:32;;;;;;;0.50;0.50;;;;;;;;;;7406894;19;20153;-86
2023/03/18 18:35:59;;;;;;;0.60;0.40;;;;;;;;;;7407002;19;20180;-88
2023/03/18 18:38:27;;;;;;;0.30;0.30;;;;;;;;;;7408715;19;20158;-87
2023/03/18 18:40:55;;;;;;;0.37;0.37;;;;;;;;;;7417069;19;20149;-91
2023/03/18 18:43:22;;;;;;;0.73;0.73;;;;;;;;;;7427582;19;20129;-90
2023/03/18 18:45:50;;;;;;;0.53;0.53;;;;;;;;;;7426335;19;20169;-90
2023/03/18 18:48:19;;;;;;;0.63;0.50;;;;;;;;;;7431810;19;20137;-90
2023/03/18 18:50:45;;;;;;;0.40;0.40;;;;;;;;;;7434344;19;20172;-90
2023/03/18 18:53:29;;;;;;;0.50;0.50;;;;;;;;;;7434039;19;20185;-90
2023/03/18 18:56:02;;;;;;;1.13;0.53;;;;;;;;;;7434847;19;20160;-90
2023/03/18 18:58:31;;;;;;;0.40;0.40;;;;;;;;;;7435730;19;20140;-90
2023/03/18 19:00:58;;;;;;;0.40;0.40;;;;;;;;;;7433102;19;20145;-91